createdAt,value
2018-09-26T00:00:33.069Z,65.18
2018-09-26T00:03:13.703Z,65.15
2018-09-26T00:05:48.017Z,65.15
2018-09-26T00:08:21.802Z,65.25
2018-09-26T00:10:55.404Z,65.11
2018-09-26T00:13:29.028Z,65.11
2018-09-26T00:16:02.646Z,65.46
2018-09-26T00:18:36.295Z,65.14
2018-09-26T00:21:10.005Z,65.43
2018-09-26T00:23:43.618Z,65.29
2018-09-26T00:26:17.223Z,65.24
2018-09-26T00:28:50.889Z,65.35
2018-09-26T00:31:24.617Z,65.38
2018-09-26T00:33:58.252Z,65.35
2018-09-26T00:36:31.896Z,65.34
2018-09-26T00:39:07.330Z,65.31
2018-09-26T00:41:40.923Z,65.48
2018-09-26T00:44:14.510Z,65.37
2018-09-26T00:46:48.146Z,65.48
2018-09-26T00:49:21.802Z,65.35
2018-09-26T00:51:55.396Z,65.63
2018-09-26T00:54:29.073Z,65.71
2018-09-26T00:57:02.791Z,65.64
2018-09-26T00:59:36.680Z,65.71
2018-09-26T01:02:10.382Z,65.78
2018-09-26T01:04:44.007Z,65.65
2018-09-26T01:07:17.625Z,65.74
2018-09-26T01:09:51.474Z,65.72
2018-09-26T01:12:25.096Z,65.69
2018-09-26T01:14:58.767Z,65.66
2018-09-26T01:17:32.402Z,65.59
2018-09-26T01:20:06.172Z,65.68
2018-09-26T01:22:39.765Z,65.64
2018-09-26T01:25:13.542Z,65.77
2018-09-26T01:27:47.257Z,65.74
2018-09-26T01:30:20.871Z,65.54
2018-09-26T01:32:54.666Z,65.76
2018-09-26T01:35:28.381Z,65.74
2018-09-26T01:38:02.125Z,65.92
2018-09-26T01:40:35.782Z,65.85
2018-09-26T01:43:09.424Z,65.99
2018-09-26T01:45:43.085Z,65.77
2018-09-26T01:48:16.684Z,66.03
2018-09-26T01:50:50.262Z,66.10
2018-09-26T01:53:23.975Z,65.90
2018-09-26T01:55:57.600Z,66.02
2018-09-26T01:58:31.180Z,65.96
2018-09-26T02:01:04.903Z,65.81
2018-09-26T02:03:38.467Z,65.77
2018-09-26T02:06:12.062Z,65.60
2018-09-26T02:08:45.607Z,65.39
2018-09-26T02:11:19.243Z,65.45
2018-09-26T02:13:52.815Z,65.34
2018-09-26T02:16:26.441Z,65.63
2018-09-26T02:18:59.967Z,65.48
2018-09-26T02:21:33.699Z,65.33
2018-09-26T02:24:07.356Z,65.42
2018-09-26T02:26:40.956Z,65.37
2018-09-26T02:29:14.525Z,65.34
2018-09-26T02:31:48.109Z,65.55
2018-09-26T02:34:21.685Z,65.29
2018-09-26T02:36:55.271Z,65.52
2018-09-26T02:39:28.837Z,65.30
2018-09-26T02:42:02.487Z,65.27
2018-09-26T02:44:36.077Z,65.30
2018-09-26T02:47:09.682Z,65.14
2018-09-26T02:49:43.386Z,65.20
2018-09-26T02:52:16.955Z,65.29
2018-09-26T02:54:50.526Z,65.28
2018-09-26T02:57:24.091Z,65.33
2018-09-26T02:59:57.669Z,65.12
2018-09-26T03:02:31.243Z,65.16
2018-09-26T03:05:05.213Z,65.21
2018-09-26T03:07:38.863Z,65.23
2018-09-26T03:10:12.482Z,65.34
2018-09-26T03:12:46.071Z,65.33
2018-09-26T03:15:19.682Z,65.27
2018-09-26T03:17:53.601Z,65.33
2018-09-26T03:20:27.198Z,65.50
2018-09-26T03:23:00.813Z,65.47
2018-09-26T03:25:34.427Z,65.36
2018-09-26T03:28:08.059Z,65.56
2018-09-26T03:30:41.730Z,65.50
2018-09-26T03:33:15.474Z,65.83
2018-09-26T03:35:49.092Z,65.70
2018-09-26T03:38:22.705Z,65.79
2018-09-26T03:40:56.293Z,65.92
2018-09-26T03:43:29.962Z,65.82
2018-09-26T03:46:03.592Z,65.71
2018-09-26T03:48:37.192Z,65.85
2018-09-26T03:51:10.786Z,65.93
2018-09-26T03:53:44.392Z,65.91
2018-09-26T03:56:18.152Z,65.97
2018-09-26T03:58:51.759Z,65.78
2018-09-26T04:01:25.412Z,65.88
2018-09-26T04:03:58.984Z,65.74
2018-09-26T04:06:32.571Z,65.82
2018-09-26T04:09:07.864Z,65.74
2018-09-26T04:11:41.632Z,65.98
2018-09-26T04:14:15.206Z,65.97
2018-09-26T04:16:48.887Z,65.79
2018-09-26T04:19:22.503Z,65.71
2018-09-26T04:21:56.158Z,65.72
2018-09-26T04:24:29.896Z,65.84
2018-09-26T04:27:03.797Z,66.06
2018-09-26T04:29:37.154Z,66.10
2018-09-26T04:32:10.819Z,65.83
2018-09-26T04:34:44.415Z,66.02
2018-09-26T04:37:18.036Z,65.99
2018-09-26T04:39:51.739Z,65.97
2018-09-26T04:42:25.329Z,65.84
2018-09-26T04:44:58.903Z,65.70
2018-09-26T04:47:32.567Z,65.91
2018-09-26T04:50:06.377Z,65.80
2018-09-26T04:52:40.095Z,65.63
2018-09-26T04:55:13.710Z,65.80
2018-09-26T04:57:47.475Z,65.89
2018-09-26T05:00:21.136Z,65.61
2018-09-26T05:02:54.745Z,65.60
2018-09-26T05:05:28.401Z,65.52
2018-09-26T05:08:02.781Z,65.66
2018-09-26T05:10:36.922Z,65.72
2018-09-26T05:13:10.574Z,65.71
2018-09-26T05:15:44.208Z,65.77
2018-09-26T05:18:17.805Z,65.54
2018-09-26T05:20:51.372Z,65.62
2018-09-26T05:23:24.956Z,65.61
2018-09-26T05:25:58.660Z,65.68
2018-09-26T05:28:32.301Z,65.56
2018-09-26T05:31:05.870Z,65.43
2018-09-26T05:33:39.461Z,65.27
2018-09-26T05:36:13.045Z,65.52
2018-09-26T05:38:46.718Z,65.56
2018-09-26T05:41:20.311Z,65.39
2018-09-26T05:43:53.972Z,65.37
2018-09-26T05:46:27.552Z,65.38
2018-09-26T05:49:01.126Z,65.34
2018-09-26T05:51:34.748Z,65.18
2018-09-26T05:54:08.586Z,65.16
2018-09-26T05:56:42.270Z,65.07
2018-09-26T05:59:15.888Z,65.05
2018-09-26T06:01:49.450Z,65.06
2018-09-26T06:04:23.071Z,64.97
2018-09-26T06:06:56.724Z,65.04
2018-09-26T06:09:30.318Z,65.06
2018-09-26T06:12:04.040Z,64.63
2018-09-26T06:14:37.601Z,64.62
2018-09-26T06:17:11.189Z,64.27
2018-09-26T06:19:45.088Z,64.17
2018-09-26T06:22:18.805Z,64.53
2018-09-26T06:24:52.391Z,64.46
2018-09-26T06:27:25.993Z,64.50
2018-09-26T06:30:00.750Z,64.77
2018-09-26T06:32:34.354Z,64.46
2018-09-26T06:35:08.387Z,64.24
2018-09-26T06:37:41.928Z,64.49
2018-09-26T06:40:15.608Z,64.18
2018-09-26T06:42:49.197Z,64.04
2018-09-26T06:45:22.845Z,63.95
2018-09-26T06:47:56.463Z,63.94
2018-09-26T06:50:30.027Z,63.52
2018-09-26T06:53:03.737Z,62.97
2018-09-26T06:55:37.366Z,63.16
2018-09-26T06:58:10.939Z,62.81
2018-09-26T07:00:44.540Z,62.82
2018-09-26T07:03:18.422Z,62.32
2018-09-26T07:05:51.999Z,62.46
2018-09-26T07:08:25.559Z,61.75
2018-09-26T07:10:59.158Z,61.16
2018-09-26T07:13:32.786Z,61.04
2018-09-26T07:16:06.405Z,61.07
2018-09-26T07:18:40.011Z,61.26
2018-09-26T07:21:13.729Z,61.25
2018-09-26T07:23:47.381Z,61.31
2018-09-26T07:26:21.059Z,61.34
2018-09-26T07:28:54.823Z,60.73
2018-09-26T07:31:28.443Z,59.53
2018-09-26T07:34:02.046Z,60.49
2018-09-26T07:36:35.692Z,59.62
2018-09-26T07:39:11.138Z,59.02
2018-09-26T07:41:44.722Z,59.03
2018-09-26T07:44:18.327Z,58.29
2018-09-26T07:46:51.911Z,57.02
2018-09-26T07:49:25.832Z,57.87
2018-09-26T07:51:59.485Z,57.58
2018-09-26T07:54:33.110Z,57.45
2018-09-26T07:57:06.874Z,57.79
2018-09-26T07:59:40.484Z,56.10
2018-09-26T08:02:14.104Z,56.18
2018-09-26T08:04:47.830Z,56.63
2018-09-26T08:07:21.424Z,55.78
2018-09-26T08:09:55.037Z,54.44
2018-09-26T08:12:28.671Z,54.31
2018-09-26T08:15:02.348Z,54.42
2018-09-26T08:17:36.172Z,53.82
2018-09-26T08:20:09.806Z,53.65
2018-09-26T08:22:43.415Z,53.24
2018-09-26T08:25:17.040Z,53.89
2018-09-26T08:27:50.651Z,53.47
2018-09-26T08:30:24.248Z,54.22
2018-09-26T08:32:57.876Z,53.46
2018-09-26T08:35:31.494Z,53.96
2018-09-26T08:38:05.084Z,53.49
2018-09-26T08:40:38.681Z,53.34
2018-09-26T08:43:12.252Z,52.55
2018-09-26T08:45:45.859Z,51.96
2018-09-26T08:48:19.488Z,52.23
2018-09-26T08:50:53.106Z,52.22
2018-09-26T08:53:26.710Z,52.12
2018-09-26T08:56:00.338Z,52.26
2018-09-26T08:58:33.961Z,51.68
2018-09-26T09:01:13.195Z,51.39
2018-09-26T09:03:46.817Z,51.17
2018-09-26T09:06:20.550Z,51.52
2018-09-26T09:08:54.227Z,50.55
2018-09-26T09:11:27.910Z,50.09
2018-09-26T09:14:01.616Z,49.50
2018-09-26T09:16:35.395Z,48.77
2018-09-26T09:19:09.095Z,48.30
2018-09-26T09:21:42.658Z,45.71
2018-09-26T09:24:16.255Z,46.14
2018-09-26T09:26:49.852Z,46.18
2018-09-26T09:29:23.462Z,45.98
2018-09-26T09:31:57.047Z,45.76
2018-09-26T09:34:30.656Z,46.22
2018-09-26T09:37:04.292Z,44.28
2018-09-26T09:39:37.900Z,44.29
2018-09-26T09:42:11.477Z,44.59
2018-09-26T09:44:45.187Z,45.62
2018-09-26T09:47:18.748Z,44.18
2018-09-26T09:49:52.403Z,43.82
2018-09-26T09:52:25.984Z,44.72
2018-09-26T09:54:59.844Z,43.11
2018-09-26T09:57:33.416Z,42.70
2018-09-26T10:00:07.121Z,42.85
2018-09-26T10:02:40.848Z,41.22
2018-09-26T10:05:14.501Z,41.38
2018-09-26T10:07:48.074Z,42.85
2018-09-26T10:10:21.684Z,42.38
2018-09-26T10:12:55.300Z,41.96
2018-09-26T10:15:28.986Z,41.62
2018-09-26T10:18:02.704Z,42.83
2018-09-26T10:20:36.554Z,44.23
2018-09-26T10:23:11.025Z,41.44
2018-09-26T10:25:44.852Z,42.89
2018-09-26T10:28:19.078Z,42.12
2018-09-26T10:30:53.210Z,42.08
2018-09-26T10:33:27.604Z,41.88
2018-09-26T10:36:02.646Z,42.98
2018-09-26T10:38:36.288Z,43.94
2018-09-26T10:41:09.896Z,42.68
2018-09-26T10:43:43.470Z,40.87
2018-09-26T10:46:17.040Z,41.83
2018-09-26T10:48:50.591Z,40.58
2018-09-26T10:51:24.297Z,41.98
2018-09-26T10:53:57.841Z,40.22
2018-09-26T10:56:31.507Z,40.45
2018-09-26T10:59:05.273Z,41.30
2018-09-26T11:01:39.027Z,39.25
2018-09-26T11:04:12.660Z,41.55
2018-09-26T11:06:46.220Z,42.00
2018-09-26T11:09:19.789Z,40.61
2018-09-26T11:11:53.707Z,40.28
2018-09-26T11:14:27.258Z,39.96
2018-09-26T11:17:00.857Z,41.60
2018-09-26T11:19:35.380Z,41.66
2018-09-26T11:22:09.037Z,39.99
2018-09-26T11:24:42.592Z,41.42
2018-09-26T11:27:16.218Z,41.49
2018-09-26T11:29:49.956Z,41.08
2018-09-26T11:32:23.591Z,41.16
2018-09-26T11:34:57.173Z,41.60
2018-09-26T11:37:30.865Z,41.30
2018-09-26T11:40:04.550Z,39.92
2018-09-26T11:42:38.168Z,39.11
2018-09-26T11:45:12.811Z,38.66
2018-09-26T11:47:46.417Z,39.71
2018-09-26T11:50:20.028Z,39.97
2018-09-26T11:52:53.803Z,38.95
2018-09-26T11:55:27.476Z,39.19
2018-09-26T11:58:01.234Z,37.32
2018-09-26T12:00:35.020Z,35.57
2018-09-26T12:03:08.756Z,37.91
2018-09-26T12:05:42.322Z,39.84
2018-09-26T12:08:15.944Z,37.12
2018-09-26T12:10:49.565Z,35.55
2018-09-26T12:13:23.150Z,36.49
2018-09-26T12:15:56.841Z,38.01
2018-09-26T12:18:30.425Z,37.61
2018-09-26T12:21:04.026Z,36.43
2018-09-26T12:23:37.612Z,37.85
2018-09-26T12:26:11.757Z,37.44
2018-09-26T12:28:45.334Z,37.47
2018-09-26T12:31:18.923Z,39.41
2018-09-26T12:33:52.609Z,37.44
2018-09-26T12:36:26.310Z,38.32
2018-09-26T12:38:59.943Z,39.40
2018-09-26T12:41:33.787Z,39.29
2018-09-26T12:44:07.430Z,39.49
2018-09-26T12:46:41.031Z,38.08
2018-09-26T12:49:17.673Z,39.35
2018-09-26T12:51:51.477Z,38.77
2018-09-26T12:54:25.332Z,38.71
2018-09-26T12:56:59.379Z,39.88
2018-09-26T12:59:33.222Z,38.31
2018-09-26T13:02:06.877Z,39.72
2018-09-26T13:04:40.537Z,37.86
2018-09-26T13:07:14.123Z,38.63
2018-09-26T13:09:47.752Z,38.68
2018-09-26T13:12:21.392Z,39.66
2018-09-26T13:14:54.969Z,39.18
2018-09-26T13:17:28.610Z,39.58
2018-09-26T13:20:02.226Z,39.23
2018-09-26T13:22:35.955Z,39.95
2018-09-26T13:25:09.617Z,40.01
2018-09-26T13:27:43.301Z,39.78
2018-09-26T13:30:16.933Z,40.20
2018-09-26T13:32:50.498Z,38.48
2018-09-26T13:35:24.183Z,37.81
2018-09-26T13:38:04.339Z,38.68
2018-09-26T13:40:38.180Z,39.43
2018-09-26T13:43:11.791Z,40.44
2018-09-26T13:45:45.424Z,40.68
2018-09-26T13:48:19.132Z,41.11
2018-09-26T13:50:52.773Z,40.48
2018-09-26T13:53:26.380Z,41.07
2018-09-26T13:55:59.993Z,40.43
2018-09-26T13:58:33.638Z,41.21
2018-09-26T14:01:07.404Z,40.54
2018-09-26T14:03:41.550Z,39.95
2018-09-26T14:06:15.566Z,40.29
2018-09-26T14:08:49.319Z,40.24
2018-09-26T14:11:22.925Z,39.64
2018-09-26T14:13:56.539Z,40.94
2018-09-26T14:16:30.167Z,39.64
2018-09-26T14:19:03.757Z,40.02
2018-09-26T14:21:39.099Z,39.56
2018-09-26T14:24:13.109Z,41.10
2018-09-26T14:26:46.988Z,41.13
2018-09-26T14:29:20.887Z,40.97
2018-09-26T14:31:54.740Z,41.36
2018-09-26T14:34:28.608Z,40.47
2018-09-26T14:37:04.461Z,41.84
2018-09-26T14:39:38.457Z,40.16
2018-09-26T14:42:12.320Z,40.89
2018-09-26T14:44:47.198Z,41.73
2018-09-26T14:47:21.143Z,41.17
2018-09-26T14:49:55.166Z,41.49
2018-09-26T14:52:29.548Z,40.79
2018-09-26T14:55:03.566Z,40.44
2018-09-26T14:57:37.727Z,41.45
2018-09-26T15:00:11.933Z,41.35
2018-09-26T15:02:45.933Z,41.44
2018-09-26T15:05:20.850Z,40.66
2018-09-26T15:07:54.870Z,40.07
2018-09-26T15:10:28.923Z,38.98
2018-09-26T15:13:02.840Z,40.73
2018-09-26T15:15:37.407Z,40.74
2018-09-26T15:18:11.447Z,40.51
2018-09-26T15:20:45.497Z,40.59
2018-09-26T15:23:19.400Z,40.18
2018-09-26T15:25:53.839Z,39.92
2018-09-26T15:28:28.282Z,40.24
2018-09-26T15:31:02.214Z,41.04
2018-09-26T15:33:36.275Z,40.37
2018-09-26T15:36:10.251Z,39.97
2018-09-26T15:38:44.194Z,39.99
2018-09-26T15:41:18.139Z,40.73
2018-09-26T15:43:52.168Z,40.89
2018-09-26T15:46:27.447Z,41.35
2018-09-26T15:49:01.512Z,41.99
2018-09-26T15:51:38.815Z,41.49
2018-09-26T15:54:12.780Z,41.51
2018-09-26T15:56:46.640Z,41.71
2018-09-26T15:59:20.874Z,41.39
2018-09-26T16:01:54.746Z,41.29
2018-09-26T16:04:28.414Z,41.71
2018-09-26T16:07:02.063Z,41.37
2018-09-26T16:09:35.793Z,41.49
2018-09-26T16:12:09.522Z,41.92
2018-09-26T16:14:45.938Z,41.17
2018-09-26T16:17:19.760Z,41.29
2018-09-26T16:19:53.563Z,42.18
2018-09-26T16:22:27.338Z,42.57
2018-09-26T16:25:01.089Z,40.73
2018-09-26T16:27:34.720Z,41.92
2018-09-26T16:30:10.855Z,42.22
2018-09-26T16:32:44.578Z,42.69
2018-09-26T16:35:18.196Z,41.64
2018-09-26T16:37:51.764Z,41.94
2018-09-26T16:40:25.451Z,42.86
2018-09-26T16:42:59.402Z,43.12
2018-09-26T16:45:33.099Z,41.88
2018-09-26T16:48:06.908Z,42.92
2018-09-26T16:50:40.638Z,42.37
2018-09-26T16:53:15.269Z,42.69
2018-09-26T16:55:52.131Z,43.06
2018-09-26T16:58:27.259Z,43.05
2018-09-26T17:01:01.104Z,41.93
2018-09-26T17:03:34.898Z,43.29
2018-09-26T17:06:08.693Z,43.12
2018-09-26T17:08:42.405Z,43.05
2018-09-26T17:11:17.346Z,43.14
2018-09-26T17:13:51.147Z,43.42
2018-09-26T17:16:27.944Z,43.25
2018-09-26T17:19:01.918Z,43.86
2018-09-26T17:21:36.615Z,43.80
2018-09-26T17:24:11.043Z,43.75
2018-09-26T17:26:46.577Z,43.60
2018-09-26T17:29:22.508Z,44.26
2018-09-26T17:31:56.192Z,43.80
2018-09-26T17:34:31.720Z,43.24
2018-09-26T17:37:05.995Z,43.73
2018-09-26T17:39:39.764Z,43.33
2018-09-26T17:42:13.538Z,43.94
2018-09-26T17:44:47.439Z,43.75
2018-09-26T17:47:21.148Z,43.89
2018-09-26T17:49:55.899Z,43.72
2018-09-26T17:52:31.559Z,43.97
2018-09-26T17:55:05.461Z,44.21
2018-09-26T17:57:39.342Z,43.84
2018-09-26T18:00:13.047Z,43.40
2018-09-26T18:02:46.676Z,43.08
2018-09-26T18:05:20.394Z,44.14
2018-09-26T18:07:54.044Z,43.26
2018-09-26T18:10:27.689Z,44.18
2018-09-26T18:13:01.370Z,44.32
2018-09-26T18:15:34.967Z,44.36
2018-09-26T18:18:08.711Z,43.76
2018-09-26T18:20:42.366Z,43.47
2018-09-26T18:23:16.002Z,43.49
2018-09-26T18:25:49.612Z,43.87
2018-09-26T18:28:23.382Z,43.58
2018-09-26T18:30:57.624Z,43.61
2018-09-26T18:33:31.288Z,44.30
2018-09-26T18:36:04.973Z,43.97
2018-09-26T18:38:38.788Z,44.34
2018-09-26T18:41:12.454Z,43.88
2018-09-26T18:43:46.178Z,43.82
2018-09-26T18:46:19.885Z,44.02
2018-09-26T18:48:53.620Z,44.33
2018-09-26T18:51:27.291Z,44.38
2018-09-26T18:54:01.036Z,44.96
2018-09-26T18:56:35.267Z,44.78
2018-09-26T18:59:09.713Z,44.21
2018-09-26T19:01:43.441Z,44.01
2018-09-26T19:04:17.142Z,44.41
2018-09-26T19:06:50.955Z,45.19
2018-09-26T19:09:24.605Z,45.32
2018-09-26T19:11:58.333Z,44.86
2018-09-26T19:14:32.120Z,45.00
2018-09-26T19:17:06.081Z,44.61
2018-09-26T19:19:39.766Z,44.63
2018-09-26T19:22:13.412Z,44.50
2018-09-26T19:24:47.145Z,44.38
2018-09-26T19:27:20.807Z,45.20
2018-09-26T19:29:54.601Z,44.58
2018-09-26T19:32:28.275Z,44.53
2018-09-26T19:35:01.927Z,44.43
2018-09-26T19:37:35.534Z,44.60
2018-09-26T19:40:09.523Z,45.29
2018-09-26T19:42:43.254Z,44.74
2018-09-26T19:45:16.885Z,44.79
2018-09-26T19:47:50.581Z,44.05
2018-09-26T19:50:24.335Z,44.04
2018-09-26T19:52:57.993Z,44.89
2018-09-26T19:55:31.845Z,45.33
2018-09-26T19:58:05.476Z,45.63
2018-09-26T20:00:39.110Z,45.23
2018-09-26T20:03:12.677Z,45.42
2018-09-26T20:05:46.311Z,44.84
2018-09-26T20:08:20.072Z,45.04
2018-09-26T20:10:55.558Z,45.06
2018-09-26T20:13:29.216Z,45.02
2018-09-26T20:16:02.825Z,44.75
2018-09-26T20:18:36.729Z,45.26
2018-09-26T20:21:10.573Z,45.09
2018-09-26T20:23:44.133Z,45.15
2018-09-26T20:26:17.814Z,44.91
2018-09-26T20:28:51.408Z,45.57
2018-09-26T20:31:24.929Z,44.79
2018-09-26T20:33:58.545Z,45.32
2018-09-26T20:36:32.291Z,45.28
2018-09-26T20:39:08.561Z,45.93
2018-09-26T20:41:47.132Z,45.16
2018-09-26T20:44:20.733Z,45.61
2018-09-26T20:46:54.321Z,45.26
2018-09-26T20:49:28.998Z,45.37
2018-09-26T20:52:02.622Z,44.60
2018-09-26T20:54:36.584Z,44.69
2018-09-26T20:57:10.152Z,44.61
2018-09-26T20:59:43.801Z,44.46
2018-09-26T21:02:17.346Z,45.17
2018-09-26T21:04:50.958Z,44.64
2018-09-26T21:07:24.538Z,44.79
2018-09-26T21:09:58.269Z,45.43
2018-09-26T21:14:00.992Z,44.58
2018-09-26T21:16:34.593Z,44.80
2018-09-26T21:19:08.378Z,44.72
2018-09-26T21:21:41.984Z,45.19
2018-09-26T21:24:15.578Z,45.42
2018-09-26T21:26:49.247Z,44.93
2018-09-26T21:29:22.871Z,44.40
2018-09-26T21:31:56.602Z,45.45
2018-09-26T21:34:30.741Z,45.47
2018-09-26T21:37:04.585Z,45.24
2018-09-26T21:39:38.275Z,45.40
2018-09-26T21:42:12.108Z,45.59
2018-09-26T21:44:46.038Z,45.31
2018-09-26T21:47:19.747Z,45.59
2018-09-26T21:49:53.363Z,45.09
2018-09-26T21:52:27.021Z,45.99
2018-09-26T21:55:00.641Z,46.15
2018-09-26T21:57:34.290Z,45.87
2018-09-26T22:00:08.391Z,45.95
2018-09-26T22:02:42.000Z,45.28
2018-09-26T22:05:16.038Z,45.31
2018-09-26T22:07:49.851Z,45.86
2018-09-26T22:10:23.545Z,45.90
2018-09-26T22:12:57.202Z,45.59
2018-09-26T22:15:31.022Z,46.12
2018-09-26T22:18:04.591Z,46.06
2018-09-26T22:20:38.537Z,46.03
2018-09-26T22:23:12.126Z,45.04
2018-09-26T22:25:45.856Z,46.23
2018-09-26T22:28:19.474Z,45.64
2018-09-26T22:30:53.168Z,46.33
2018-09-26T22:33:26.779Z,46.09
2018-09-26T22:36:00.405Z,46.67
2018-09-26T22:38:34.020Z,46.75
2018-09-26T22:41:07.649Z,46.89
2018-09-26T22:43:41.330Z,46.92
2018-09-26T22:46:15.060Z,47.14
2018-09-26T22:48:48.682Z,47.66
2018-09-26T22:51:23.560Z,47.71
2018-09-26T22:53:57.152Z,47.95
2018-09-26T22:56:30.781Z,47.68
2018-09-26T22:59:04.355Z,48.06
2018-09-26T23:01:37.958Z,48.03
2018-09-26T23:04:11.652Z,48.65
2018-09-26T23:06:45.269Z,48.10
2018-09-26T23:09:18.844Z,48.41
2018-09-26T23:11:52.422Z,48.80
2018-09-26T23:14:26.021Z,48.87
2018-09-26T23:16:59.789Z,48.32
2018-09-26T23:19:33.352Z,48.69
2018-09-26T23:22:07.020Z,48.79
2018-09-26T23:24:40.750Z,49.40
2018-09-26T23:27:14.354Z,49.28
2018-09-26T23:29:47.887Z,49.16
2018-09-26T23:32:21.501Z,49.54
2018-09-26T23:34:55.098Z,49.67
2018-09-26T23:37:28.732Z,49.97
2018-09-26T23:40:02.369Z,49.41
2018-09-26T23:42:35.988Z,49.59
2018-09-26T23:45:09.581Z,50.72
2018-09-26T23:47:43.152Z,50.40
2018-09-26T23:50:16.802Z,50.55
2018-09-26T23:52:50.399Z,50.76
2018-09-26T23:55:23.949Z,50.89
2018-09-26T23:57:57.663Z,50.85
